createdAt,value
2019-01-29T00:00:15.364Z,93.0
2019-01-29T00:01:15.389Z,92.9
2019-01-29T00:02:15.653Z,93.0
2019-01-29T00:03:15.937Z,92.6
2019-01-29T00:04:15.203Z,92.6
2019-01-29T00:05:15.472Z,92.8
2019-01-29T00:06:15.739Z,92.6
2019-01-29T00:07:16.005Z,92.4
2019-01-29T00:08:15.268Z,92.5
2019-01-29T00:09:15.546Z,92.5
2019-01-29T00:10:15.836Z,92.4
2019-01-29T00:11:15.869Z,92.3
2019-01-29T00:12:16.126Z,92.5
2019-01-29T00:13:15.392Z,92.2
2019-01-29T00:14:15.659Z,92.7
2019-01-29T00:15:15.931Z,92.6
2019-01-29T00:16:15.194Z,92.5
2019-01-29T00:17:15.468Z,92.2
2019-01-29T00:18:15.737Z,92.5
2019-01-29T00:19:16.013Z,92.5
2019-01-29T00:20:15.286Z,92.6
2019-01-29T00:21:15.349Z,92.7
2019-01-29T00:22:15.608Z,92.8
2019-01-29T00:23:15.875Z,92.6
2019-01-29T00:24:16.151Z,92.4
2019-01-29T00:25:15.427Z,92.5
2019-01-29T00:26:15.702Z,92.3
2019-01-29T00:27:15.967Z,92.8
2019-01-29T00:28:15.235Z,92.6
2019-01-29T00:29:15.504Z,92.5
2019-01-29T00:30:15.782Z,92.8
2019-01-29T00:31:15.880Z,92.7
2019-01-29T00:32:16.139Z,92.7
2019-01-29T00:33:15.398Z,92.4
2019-01-29T00:34:15.673Z,92.6
2019-01-29T00:35:15.942Z,92.6
2019-01-29T00:36:15.221Z,92.3
2019-01-29T00:37:15.484Z,92.5
2019-01-29T00:38:15.751Z,92.5
2019-01-29T00:39:16.017Z,92.7
2019-01-29T00:40:15.288Z,92.8
2019-01-29T00:41:15.346Z,92.3
2019-01-29T00:42:15.607Z,92.0
2019-01-29T00:43:15.871Z,92.5
2019-01-29T00:44:16.131Z,92.7
2019-01-29T00:45:15.402Z,92.5
2019-01-29T00:46:15.674Z,92.3
2019-01-29T00:47:15.927Z,92.4
2019-01-29T00:48:15.200Z,92.2
2019-01-29T00:49:15.459Z,92.0
2019-01-29T00:50:15.738Z,91.8
2019-01-29T00:51:15.788Z,91.7
2019-01-29T00:52:16.051Z,91.4
2019-01-29T00:53:15.316Z,91.6
2019-01-29T00:54:15.579Z,91.9
2019-01-29T00:55:15.842Z,91.5
2019-01-29T00:56:16.108Z,91.3
2019-01-29T00:57:15.368Z,91.5
2019-01-29T00:58:15.946Z,91.7
2019-01-29T00:59:15.211Z,91.8
2019-01-29T01:00:15.482Z,91.7
2019-01-29T01:01:15.554Z,91.8
2019-01-29T01:02:15.821Z,91.8
2019-01-29T01:03:16.089Z,92.0
2019-01-29T01:04:15.355Z,92.0
2019-01-29T01:05:15.622Z,91.8
2019-01-29T01:06:15.886Z,91.6
2019-01-29T01:07:16.154Z,91.3
2019-01-29T01:08:15.452Z,91.5
2019-01-29T01:09:15.725Z,91.5
2019-01-29T01:10:16.005Z,91.7
2019-01-29T01:11:16.053Z,91.7
2019-01-29T01:12:15.326Z,91.8
2019-01-29T01:13:15.607Z,91.9
2019-01-29T01:14:15.900Z,91.6
2019-01-29T01:15:15.161Z,91.7
2019-01-29T01:16:15.426Z,91.8
2019-01-29T01:17:15.697Z,91.5
2019-01-29T01:18:15.969Z,91.7
2019-01-29T01:19:15.232Z,91.5
2019-01-29T01:20:15.509Z,91.7
2019-01-29T01:21:15.561Z,91.5
2019-01-29T01:22:15.816Z,91.8
2019-01-29T01:23:16.086Z,91.8
2019-01-29T01:24:15.355Z,91.8
2019-01-29T01:25:15.623Z,91.8
2019-01-29T01:26:15.881Z,91.8
2019-01-29T01:27:16.163Z,91.7
2019-01-29T01:28:15.460Z,91.8
2019-01-29T01:29:15.722Z,92.1
2019-01-29T01:30:15.991Z,92.3
2019-01-29T01:31:16.047Z,92.5
2019-01-29T01:32:15.306Z,92.5
2019-01-29T01:33:15.564Z,92.4
2019-01-29T01:34:15.830Z,92.3
2019-01-29T01:35:16.094Z,92.3
2019-01-29T01:36:15.350Z,92.5
2019-01-29T01:37:15.615Z,92.3
2019-01-29T01:38:15.882Z,92.3
2019-01-29T01:39:16.167Z,92.2
2019-01-29T01:40:15.442Z,92.2
2019-01-29T01:41:15.495Z,92.3
2019-01-29T01:42:15.755Z,92.6
2019-01-29T01:43:16.028Z,92.8
2019-01-29T01:44:15.295Z,92.6
2019-01-29T01:45:15.558Z,92.8
2019-01-29T01:46:15.816Z,93.0
2019-01-29T01:47:16.082Z,92.8
2019-01-29T01:48:15.354Z,92.9
2019-01-29T01:49:15.631Z,93.0
2019-01-29T01:50:15.906Z,92.8
2019-01-29T01:51:15.948Z,92.9
2019-01-29T01:52:15.218Z,93.1
2019-01-29T01:53:15.483Z,92.9
2019-01-29T01:54:15.758Z,93.1
2019-01-29T01:55:16.408Z,93.4
2019-01-29T01:56:15.676Z,93.3
2019-01-29T01:57:15.933Z,93.3
2019-01-29T01:58:15.202Z,93.3
2019-01-29T01:59:15.470Z,93.3
2019-01-29T02:00:15.742Z,93.6
2019-01-29T02:01:15.783Z,93.5
2019-01-29T02:02:16.059Z,93.4
2019-01-29T02:03:15.313Z,93.5
2019-01-29T02:04:15.569Z,93.5
2019-01-29T02:05:15.831Z,93.4
2019-01-29T02:06:16.097Z,93.6
2019-01-29T02:07:15.358Z,93.7
2019-01-29T02:08:15.615Z,94.0
2019-01-29T02:09:15.880Z,93.8
2019-01-29T02:10:16.184Z,93.9
2019-01-29T02:11:15.187Z,93.9
2019-01-29T02:12:15.454Z,93.7
2019-01-29T02:13:15.723Z,93.4
2019-01-29T02:14:15.993Z,93.6
2019-01-29T02:15:15.269Z,93.5
2019-01-29T02:16:15.534Z,93.7
2019-01-29T02:17:15.796Z,93.6
2019-01-29T02:18:16.448Z,93.8
2019-01-29T02:19:15.710Z,93.7
2019-01-29T02:20:15.990Z,93.9
2019-01-29T02:21:16.014Z,93.9
2019-01-29T02:22:15.357Z,94.0
2019-01-29T02:23:15.626Z,93.7
2019-01-29T02:24:15.898Z,93.9
2019-01-29T02:25:15.160Z,93.9
2019-01-29T02:26:15.418Z,94.1
2019-01-29T02:27:15.688Z,94.1
2019-01-29T02:28:15.964Z,94.0
2019-01-29T02:29:15.227Z,93.9
2019-01-29T02:30:15.501Z,94.0
2019-01-29T02:31:15.550Z,94.2
2019-01-29T02:32:15.853Z,94.2
2019-01-29T02:33:16.435Z,94.0
2019-01-29T02:34:15.704Z,93.8
2019-01-29T02:35:15.969Z,93.8
2019-01-29T02:36:15.233Z,93.8
2019-01-29T02:37:15.503Z,94.0
2019-01-29T02:38:15.760Z,93.7
2019-01-29T02:39:16.033Z,93.5
2019-01-29T02:40:15.303Z,93.4
2019-01-29T02:41:15.348Z,93.7
2019-01-29T02:42:15.606Z,93.6
2019-01-29T02:43:15.866Z,93.6
2019-01-29T02:44:16.126Z,93.5
2019-01-29T02:45:15.406Z,93.5
2019-01-29T02:46:15.676Z,93.5
2019-01-29T02:47:15.944Z,93.7
2019-01-29T02:48:15.219Z,93.8
2019-01-29T02:49:15.487Z,93.8
2019-01-29T02:50:15.759Z,93.8
2019-01-29T02:51:18.079Z,93.7
2019-01-29T02:52:15.345Z,93.7
2019-01-29T02:53:19.064Z,93.8
2019-01-29T02:54:15.333Z,93.7
2019-01-29T02:55:15.617Z,93.6
2019-01-29T02:56:15.880Z,93.4
2019-01-29T02:57:16.147Z,93.8
2019-01-29T02:58:15.418Z,93.5
2019-01-29T02:59:15.680Z,93.8
2019-01-29T03:00:15.965Z,93.7
2019-01-29T03:01:16.010Z,93.6
2019-01-29T03:02:15.272Z,93.5
2019-01-29T03:03:15.554Z,93.7
2019-01-29T03:04:15.842Z,93.8
2019-01-29T03:05:16.111Z,93.5
2019-01-29T03:06:15.376Z,93.5
2019-01-29T03:07:15.665Z,93.5
2019-01-29T03:08:15.633Z,93.3
2019-01-29T03:09:15.910Z,93.5
2019-01-29T03:10:15.176Z,93.5
2019-01-29T03:11:15.239Z,93.2
2019-01-29T03:12:15.518Z,93.2
2019-01-29T03:13:15.780Z,93.2
2019-01-29T03:14:16.048Z,93.3
2019-01-29T03:15:15.305Z,93.3
2019-01-29T03:16:15.570Z,93.2
2019-01-29T03:17:15.841Z,93.3
2019-01-29T03:18:16.117Z,93.0
2019-01-29T03:19:15.385Z,92.8
2019-01-29T03:20:15.652Z,92.7
2019-01-29T03:21:15.760Z,92.4
2019-01-29T03:22:17.129Z,92.3
2019-01-29T03:23:15.404Z,92.3
2019-01-29T03:24:15.761Z,92.3
2019-01-29T03:25:16.063Z,92.7
2019-01-29T03:26:15.358Z,92.5
2019-01-29T03:27:15.624Z,92.3
2019-01-29T03:28:15.889Z,92.5
2019-01-29T03:29:15.154Z,92.9
2019-01-29T03:30:15.455Z,92.7
2019-01-29T03:31:15.476Z,92.4
2019-01-29T03:32:15.750Z,92.4
2019-01-29T03:33:16.037Z,92.2
2019-01-29T03:34:15.318Z,92.0
2019-01-29T03:35:15.592Z,92.3
2019-01-29T03:36:15.857Z,92.3
2019-01-29T03:37:16.130Z,92.4
2019-01-29T03:38:15.408Z,92.1
2019-01-29T03:39:15.687Z,92.0
2019-01-29T03:40:15.953Z,92.3
2019-01-29T03:41:16.022Z,92.5
2019-01-29T03:42:15.296Z,92.3
2019-01-29T03:43:15.561Z,92.3
2019-01-29T03:44:15.827Z,92.4
2019-01-29T03:45:16.249Z,92.2
2019-01-29T03:46:15.573Z,92.0
2019-01-29T03:47:15.841Z,92.0
2019-01-29T03:48:16.117Z,92.2
2019-01-29T03:49:15.380Z,91.8
2019-01-29T03:50:15.671Z,91.8
2019-01-29T03:51:15.696Z,91.8
2019-01-29T03:52:15.959Z,91.9
2019-01-29T03:53:15.275Z,92.0
2019-01-29T03:54:15.546Z,92.0
2019-01-29T03:55:15.817Z,91.9
2019-01-29T03:56:16.092Z,92.1
2019-01-29T03:57:15.357Z,92.0
2019-01-29T03:58:15.622Z,91.8
2019-01-29T03:59:15.879Z,91.9
2019-01-29T04:00:16.164Z,92.1
2019-01-29T04:01:15.241Z,92.0
2019-01-29T04:02:15.508Z,92.0
2019-01-29T04:03:15.775Z,92.1
2019-01-29T04:04:16.045Z,92.1
2019-01-29T04:05:15.312Z,92.0
2019-01-29T04:06:15.663Z,92.1
2019-01-29T04:07:15.953Z,92.2
2019-01-29T04:08:15.238Z,92.3
2019-01-29T04:09:15.506Z,92.2
2019-01-29T04:10:16.460Z,92.2
2019-01-29T04:11:15.824Z,92.2
2019-01-29T04:12:16.418Z,92.2
2019-01-29T04:13:15.684Z,92.5
2019-01-29T04:14:15.951Z,92.5
2019-01-29T04:15:15.226Z,92.4
2019-01-29T04:16:15.505Z,92.2
2019-01-29T04:17:15.779Z,92.5
2019-01-29T04:18:16.040Z,92.3
2019-01-29T04:19:15.314Z,92.5
2019-01-29T04:20:15.577Z,92.5
2019-01-29T04:21:15.614Z,92.6
2019-01-29T04:22:15.888Z,92.7
2019-01-29T04:23:15.162Z,92.7
2019-01-29T04:24:15.444Z,92.8
2019-01-29T04:25:15.724Z,92.8
2019-01-29T04:26:15.991Z,92.8
2019-01-29T04:27:15.250Z,92.3
2019-01-29T04:28:15.513Z,92.3
2019-01-29T04:29:15.770Z,92.5
2019-01-29T04:30:16.112Z,92.5
2019-01-29T04:31:16.109Z,92.8
2019-01-29T04:32:15.382Z,92.6
2019-01-29T04:33:15.645Z,92.5
2019-01-29T04:34:15.913Z,92.7
2019-01-29T04:35:15.186Z,92.6
2019-01-29T04:36:15.447Z,92.4
2019-01-29T04:37:15.717Z,92.3
2019-01-29T04:38:15.978Z,92.3
2019-01-29T04:39:15.239Z,92.2
2019-01-29T04:40:15.531Z,92.2
2019-01-29T04:41:15.572Z,92.5
2019-01-29T04:42:15.829Z,92.5
2019-01-29T04:43:16.085Z,92.4
2019-01-29T04:44:15.350Z,92.4
2019-01-29T04:45:15.649Z,92.1
2019-01-29T04:46:15.915Z,92.1
2019-01-29T04:47:15.192Z,91.9
2019-01-29T04:48:15.480Z,91.9
2019-01-29T04:49:15.745Z,92.0
2019-01-29T04:50:16.068Z,92.1
2019-01-29T04:51:16.094Z,91.9
2019-01-29T04:52:15.367Z,92.1
2019-01-29T04:53:15.640Z,92.1
2019-01-29T04:54:15.903Z,92.1
2019-01-29T04:55:15.165Z,92.0
2019-01-29T04:56:15.435Z,92.0
2019-01-29T04:57:15.697Z,92.0
2019-01-29T04:58:15.971Z,92.1
2019-01-29T04:59:15.233Z,92.2
2019-01-29T05:00:15.499Z,92.2
2019-01-29T05:01:15.553Z,92.2
2019-01-29T05:02:15.815Z,92.2
2019-01-29T05:03:16.082Z,92.5
2019-01-29T05:04:15.501Z,92.4
2019-01-29T05:05:15.777Z,92.5
2019-01-29T05:06:16.055Z,92.5
2019-01-29T05:07:15.319Z,92.8
2019-01-29T05:08:15.590Z,92.8
2019-01-29T05:09:15.851Z,92.8
2019-01-29T05:10:16.119Z,92.7
2019-01-29T05:11:15.193Z,92.7
2019-01-29T05:12:15.460Z,92.8
2019-01-29T05:13:15.753Z,92.9
2019-01-29T05:14:16.034Z,92.9
2019-01-29T05:15:15.296Z,93.0
2019-01-29T05:16:15.573Z,93.2
2019-01-29T05:17:15.848Z,93.2
2019-01-29T05:18:16.124Z,93.3
2019-01-29T05:19:15.396Z,93.4
2019-01-29T05:20:15.666Z,93.5
2019-01-29T05:21:15.695Z,93.8
2019-01-29T05:22:15.961Z,93.7
2019-01-29T05:23:15.228Z,93.7
2019-01-29T05:24:15.494Z,93.7
2019-01-29T05:25:15.776Z,93.7
2019-01-29T05:26:16.072Z,93.8
2019-01-29T05:27:15.347Z,94.0
2019-01-29T05:28:15.635Z,94.0
2019-01-29T05:29:15.906Z,94.1
2019-01-29T05:30:15.182Z,94.3
2019-01-29T05:31:15.225Z,94.5
2019-01-29T05:32:15.488Z,94.4
2019-01-29T05:33:15.760Z,94.4
2019-01-29T05:34:16.034Z,94.6
2019-01-29T05:35:15.306Z,94.8
2019-01-29T05:36:15.597Z,94.7
2019-01-29T05:37:15.928Z,94.7
2019-01-29T05:38:15.202Z,94.7
2019-01-29T05:39:15.471Z,94.7
2019-01-29T05:40:15.748Z,94.7
2019-01-29T05:41:15.803Z,94.6
2019-01-29T05:42:16.286Z,94.5
2019-01-29T05:43:15.559Z,94.5
2019-01-29T05:44:15.840Z,94.5
2019-01-29T05:45:16.114Z,94.5
2019-01-29T05:46:15.386Z,94.6
2019-01-29T05:47:15.675Z,94.2
2019-01-29T05:48:15.953Z,94.2
2019-01-29T05:49:15.266Z,94.2
2019-01-29T05:50:15.553Z,94.1
2019-01-29T05:51:15.578Z,94.1
2019-01-29T05:52:15.856Z,94.0
2019-01-29T05:53:16.117Z,93.9
2019-01-29T05:54:16.756Z,93.9
2019-01-29T05:55:16.069Z,94.0
2019-01-29T05:56:15.335Z,94.0
2019-01-29T05:57:15.606Z,94.0
2019-01-29T05:58:16.384Z,93.8
2019-01-29T05:59:15.651Z,93.6
2019-01-29T06:00:15.938Z,93.5
2019-01-29T06:01:15.968Z,93.3
2019-01-29T06:02:15.238Z,93.3
2019-01-29T06:03:15.503Z,93.3
2019-01-29T06:04:15.778Z,93.0
2019-01-29T06:05:16.070Z,93.1
2019-01-29T06:06:15.337Z,93.2
2019-01-29T06:07:15.597Z,93.2
2019-01-29T06:08:15.860Z,93.2
2019-01-29T06:09:16.126Z,93.0
2019-01-29T06:10:15.403Z,93.0
2019-01-29T06:11:15.455Z,93.2
2019-01-29T06:12:15.727Z,92.9
2019-01-29T06:13:16.275Z,92.9
2019-01-29T06:14:15.563Z,92.8
2019-01-29T06:15:15.829Z,92.8
2019-01-29T06:16:16.084Z,92.8
2019-01-29T06:17:15.350Z,92.7
2019-01-29T06:18:15.606Z,92.8
2019-01-29T06:19:16.041Z,92.8
2019-01-29T06:20:15.310Z,92.8
2019-01-29T06:21:15.368Z,92.7
2019-01-29T06:22:15.644Z,92.6
2019-01-29T06:23:15.925Z,92.5
2019-01-29T06:24:15.200Z,92.4
2019-01-29T06:25:15.510Z,92.6
2019-01-29T06:26:15.783Z,92.7
2019-01-29T06:27:16.044Z,92.5
2019-01-29T06:28:15.316Z,92.6
2019-01-29T06:29:15.574Z,92.4
2019-01-29T06:30:15.840Z,92.2
2019-01-29T06:31:15.931Z,92.1
2019-01-29T06:32:15.193Z,92.0
2019-01-29T06:33:15.463Z,92.2
2019-01-29T06:34:15.738Z,92.2
2019-01-29T06:35:16.120Z,91.9
2019-01-29T06:36:15.418Z,92.2
2019-01-29T06:37:15.687Z,92.3
2019-01-29T06:38:15.956Z,92.2
2019-01-29T06:39:15.218Z,91.9
2019-01-29T06:40:15.497Z,92.2
2019-01-29T06:41:15.556Z,92.2
2019-01-29T06:42:15.825Z,92.3
2019-01-29T06:43:16.096Z,92.2
2019-01-29T06:44:15.365Z,92.2
2019-01-29T06:45:15.648Z,92.5
2019-01-29T06:46:15.907Z,92.1
2019-01-29T06:47:15.177Z,92.0
2019-01-29T06:48:15.436Z,91.8
2019-01-29T06:49:15.702Z,91.9
2019-01-29T06:50:15.970Z,91.9
2019-01-29T06:51:16.017Z,91.8
2019-01-29T06:52:15.269Z,92.0
2019-01-29T06:53:15.522Z,91.8
2019-01-29T06:54:15.789Z,91.7
2019-01-29T06:55:16.062Z,91.9
2019-01-29T06:56:15.455Z,92.0
2019-01-29T06:57:15.732Z,92.1
2019-01-29T06:58:16.000Z,92.0
2019-01-29T06:59:15.272Z,92.2
2019-01-29T07:00:15.593Z,92.2
2019-01-29T07:01:15.601Z,92.0
2019-01-29T07:02:15.870Z,91.8
2019-01-29T07:03:16.134Z,91.6
2019-01-29T07:04:15.395Z,91.7
2019-01-29T07:05:15.663Z,92.0
2019-01-29T07:06:15.926Z,91.7
2019-01-29T07:07:15.192Z,91.8
2019-01-29T07:08:15.455Z,91.7
2019-01-29T07:09:15.719Z,92.0
2019-01-29T07:10:15.993Z,92.0
2019-01-29T07:11:16.018Z,91.8
2019-01-29T07:12:15.281Z,91.6
2019-01-29T07:13:15.546Z,91.6
2019-01-29T07:14:15.810Z,91.4
2019-01-29T07:15:16.071Z,91.3
2019-01-29T07:16:15.296Z,91.5
2019-01-29T07:17:15.591Z,91.2
2019-01-29T07:18:15.863Z,91.2
2019-01-29T07:19:16.129Z,91.3
2019-01-29T07:20:15.402Z,91.3
2019-01-29T07:21:15.452Z,91.4
2019-01-29T07:22:15.702Z,91.2
2019-01-29T07:23:15.968Z,91.2
2019-01-29T07:24:15.236Z,91.3
2019-01-29T07:25:15.531Z,91.0
2019-01-29T07:26:15.799Z,91.1
2019-01-29T07:27:16.066Z,90.9
2019-01-29T07:28:15.337Z,91.0
2019-01-29T07:29:15.594Z,90.9
2019-01-29T07:30:15.896Z,90.7
2019-01-29T07:31:15.918Z,91.0
2019-01-29T07:32:15.175Z,90.6
2019-01-29T07:33:15.441Z,90.6
2019-01-29T07:34:15.716Z,90.7
2019-01-29T07:35:15.975Z,90.7
2019-01-29T07:36:15.247Z,90.8
2019-01-29T07:37:22.349Z,90.5
2019-01-29T07:38:15.647Z,90.4
2019-01-29T07:39:15.907Z,90.2
2019-01-29T07:40:15.331Z,90.4
2019-01-29T07:41:15.224Z,90.8
2019-01-29T07:42:15.486Z,90.5
2019-01-29T07:43:15.744Z,90.0
2019-01-29T07:44:16.013Z,90.3
2019-01-29T07:45:15.281Z,90.2
2019-01-29T07:46:15.532Z,90.2
2019-01-29T07:47:15.788Z,90.2
2019-01-29T07:48:16.063Z,90.2
2019-01-29T07:49:15.381Z,90.2
2019-01-29T07:50:15.977Z,90.6
2019-01-29T07:51:15.695Z,90.1
2019-01-29T07:52:15.971Z,90.2
2019-01-29T07:53:15.320Z,90.3
2019-01-29T07:54:15.599Z,90.2
2019-01-29T07:55:15.872Z,90.3
2019-01-29T07:56:16.147Z,90.2
2019-01-29T07:57:15.425Z,90.0
2019-01-29T07:58:15.680Z,90.2
2019-01-29T07:59:15.963Z,90.2
2019-01-29T08:00:15.257Z,90.4
2019-01-29T08:01:15.291Z,90.5
2019-01-29T08:02:15.568Z,90.3
2019-01-29T08:03:15.854Z,90.4
2019-01-29T08:04:16.129Z,90.2
2019-01-29T08:05:15.397Z,90.2
2019-01-29T08:06:15.667Z,90.2
2019-01-29T08:07:15.922Z,90.2
2019-01-29T08:08:15.197Z,90.6
2019-01-29T08:09:15.458Z,90.3
2019-01-29T08:10:15.749Z,90.3
2019-01-29T08:11:15.786Z,90.3
2019-01-29T08:12:16.058Z,90.2
2019-01-29T08:13:15.321Z,90.1
2019-01-29T08:14:15.584Z,90.2
2019-01-29T08:15:15.861Z,90.2
2019-01-29T08:16:16.134Z,90.4
2019-01-29T08:17:15.415Z,90.3
2019-01-29T08:18:15.677Z,90.2
2019-01-29T08:19:15.948Z,90.4
2019-01-29T08:20:15.237Z,90.2
2019-01-29T08:21:15.278Z,90.2
2019-01-29T08:22:15.549Z,90.2
2019-01-29T08:23:15.805Z,90.1
2019-01-29T08:24:16.091Z,89.9
2019-01-29T08:25:15.345Z,90.2
2019-01-29T08:26:15.607Z,90.0
2019-01-29T08:27:15.871Z,90.1
2019-01-29T08:28:16.132Z,89.9
2019-01-29T08:29:15.393Z,89.8
2019-01-29T08:30:15.733Z,89.9
2019-01-29T08:31:15.715Z,90.0
2019-01-29T08:32:15.989Z,90.0
2019-01-29T08:33:15.287Z,90.0
2019-01-29T08:34:15.555Z,90.2
2019-01-29T08:35:15.808Z,90.1
2019-01-29T08:36:16.093Z,90.1
2019-01-29T08:37:15.366Z,90.1
2019-01-29T08:38:15.630Z,90.0
2019-01-29T08:39:15.883Z,89.9
2019-01-29T08:40:15.168Z,90.0
2019-01-29T08:41:15.211Z,90.1
2019-01-29T08:42:15.470Z,90.0
2019-01-29T08:43:15.735Z,89.9
2019-01-29T08:44:16.005Z,90.0
2019-01-29T08:45:15.280Z,90.0
2019-01-29T08:46:15.560Z,89.9
2019-01-29T08:47:15.818Z,89.8
2019-01-29T08:48:16.087Z,89.6
2019-01-29T08:49:15.347Z,89.6
2019-01-29T08:50:15.619Z,89.7
2019-01-29T08:51:15.667Z,89.7
2019-01-29T08:52:15.931Z,89.5
2019-01-29T08:53:15.188Z,89.9
2019-01-29T08:54:15.440Z,89.8
2019-01-29T08:55:15.707Z,89.8
2019-01-29T08:56:15.971Z,89.7
2019-01-29T08:57:15.236Z,89.8
2019-01-29T08:58:15.509Z,89.9
2019-01-29T08:59:15.771Z,89.8
2019-01-29T09:00:16.069Z,90.0
2019-01-29T09:01:16.095Z,90.0
2019-01-29T09:02:15.363Z,90.0
2019-01-29T09:03:15.648Z,89.8
2019-01-29T09:04:15.920Z,90.1
2019-01-29T09:05:15.226Z,90.1
2019-01-29T09:06:15.487Z,90.1
2019-01-29T09:07:15.750Z,89.8
2019-01-29T09:08:16.016Z,89.8
2019-01-29T09:09:15.288Z,90.2
2019-01-29T09:10:15.568Z,90.0
2019-01-29T09:11:15.625Z,90.3
2019-01-29T09:12:15.870Z,90.3
2019-01-29T09:13:16.145Z,90.5
2019-01-29T09:14:15.407Z,90.3
2019-01-29T09:15:15.688Z,90.3
2019-01-29T09:16:15.949Z,90.2
2019-01-29T09:17:15.211Z,90.1
2019-01-29T09:18:15.485Z,90.1
2019-01-29T09:19:15.761Z,90.1
2019-01-29T09:20:16.029Z,90.3
2019-01-29T09:21:16.100Z,90.3
2019-01-29T09:22:15.362Z,90.2
2019-01-29T09:23:15.628Z,90.3
2019-01-29T09:24:15.895Z,90.2
2019-01-29T09:25:22.632Z,90.2
2019-01-29T09:26:16.070Z,90.6
2019-01-29T09:27:15.355Z,90.3
2019-01-29T09:28:18.672Z,90.6
2019-01-29T09:29:18.035Z,90.4
2019-01-29T09:30:15.324Z,90.2
2019-01-29T09:31:15.369Z,90.2
2019-01-29T09:32:15.633Z,90.3
2019-01-29T09:33:15.887Z,90.3
2019-01-29T09:34:15.157Z,90.7
2019-01-29T09:35:15.438Z,90.5
2019-01-29T09:36:15.708Z,90.7
2019-01-29T09:37:15.980Z,91.0
2019-01-29T09:38:15.246Z,91.1
2019-01-29T09:39:15.509Z,91.3
2019-01-29T09:40:15.789Z,91.7
2019-01-29T09:41:15.840Z,91.8
2019-01-29T09:42:16.109Z,92.0
2019-01-29T09:43:15.375Z,92.0
2019-01-29T09:44:15.642Z,92.2
2019-01-29T09:45:15.904Z,92.3
2019-01-29T09:46:15.168Z,92.4
2019-01-29T09:47:15.435Z,92.5
2019-01-29T09:48:15.700Z,92.5
2019-01-29T09:49:15.957Z,92.8
2019-01-29T09:50:15.250Z,92.9
2019-01-29T09:51:15.277Z,93.0
2019-01-29T09:52:15.540Z,93.2
2019-01-29T09:53:15.799Z,93.1
2019-01-29T09:54:16.584Z,92.9
2019-01-29T09:55:15.857Z,92.8
2019-01-29T09:56:16.141Z,92.8
2019-01-29T09:57:15.403Z,92.7
2019-01-29T09:58:15.668Z,92.5
2019-01-29T09:59:15.929Z,92.1
2019-01-29T10:00:15.203Z,92.1
2019-01-29T10:01:15.276Z,91.3
2019-01-29T10:02:15.547Z,91.2
2019-01-29T10:03:15.805Z,91.2
2019-01-29T10:04:16.080Z,91.0
2019-01-29T10:05:15.367Z,90.7
2019-01-29T10:06:15.630Z,90.0
2019-01-29T10:07:15.899Z,90.0
2019-01-29T10:08:15.174Z,89.7
2019-01-29T10:09:15.438Z,89.2
2019-01-29T10:10:15.737Z,89.2
2019-01-29T10:11:15.767Z,89.5
2019-01-29T10:12:16.018Z,89.3
2019-01-29T10:13:15.271Z,89.3
2019-01-29T10:14:15.540Z,89.5
2019-01-29T10:15:15.817Z,89.0
2019-01-29T10:16:16.084Z,89.2
2019-01-29T10:17:15.348Z,89.2
2019-01-29T10:18:15.606Z,89.5
2019-01-29T10:19:15.869Z,89.2
2019-01-29T10:20:16.146Z,89.4
2019-01-29T10:21:15.211Z,89.0
2019-01-29T10:22:15.478Z,89.1
2019-01-29T10:23:15.732Z,88.8
2019-01-29T10:24:16.000Z,88.8
2019-01-29T10:25:15.266Z,89.6
2019-01-29T10:26:15.542Z,89.5
2019-01-29T10:27:15.802Z,88.7
2019-01-29T10:28:16.070Z,88.8
2019-01-29T10:29:15.404Z,89.2
2019-01-29T10:30:15.678Z,88.6
2019-01-29T10:31:15.715Z,88.3
2019-01-29T10:32:15.982Z,88.0
2019-01-29T10:33:15.251Z,88.1
2019-01-29T10:34:15.538Z,88.2
2019-01-29T10:35:15.815Z,88.3
2019-01-29T10:36:16.080Z,88.2
2019-01-29T10:37:15.349Z,88.6
2019-01-29T10:38:15.612Z,88.0
2019-01-29T10:39:15.875Z,88.0
2019-01-29T10:40:16.141Z,88.0
2019-01-29T10:41:15.213Z,87.8
2019-01-29T10:42:15.484Z,87.9
2019-01-29T10:43:15.764Z,88.2
2019-01-29T10:44:16.050Z,88.1
2019-01-29T10:45:15.312Z,88.1
2019-01-29T10:46:15.579Z,87.8
2019-01-29T10:47:15.847Z,87.7
2019-01-29T10:48:16.115Z,87.5
2019-01-29T10:49:15.385Z,87.3
2019-01-29T10:50:15.684Z,87.3
2019-01-29T10:51:15.798Z,87.3
2019-01-29T10:52:16.057Z,87.3
2019-01-29T10:53:15.328Z,86.8
2019-01-29T10:54:15.592Z,86.8
2019-01-29T10:55:15.857Z,86.6
2019-01-29T10:56:16.121Z,86.4
2019-01-29T10:57:15.389Z,86.4
2019-01-29T10:58:15.661Z,85.9
2019-01-29T10:59:15.935Z,86.0
2019-01-29T11:00:15.210Z,85.7
2019-01-29T11:01:15.283Z,85.2
2019-01-29T11:02:15.549Z,85.2
2019-01-29T11:03:15.821Z,85.5
2019-01-29T11:04:16.080Z,85.4
2019-01-29T11:05:15.340Z,84.9
2019-01-29T11:06:15.607Z,84.6
2019-01-29T11:07:15.873Z,84.5
2019-01-29T11:08:16.138Z,84.2
2019-01-29T11:09:15.410Z,84.2
2019-01-29T11:10:15.695Z,83.9
2019-01-29T11:11:15.732Z,84.0
2019-01-29T11:12:16.000Z,83.9
2019-01-29T11:13:15.262Z,84.0
2019-01-29T11:14:15.521Z,84.2
2019-01-29T11:15:15.796Z,84.2
2019-01-29T11:16:16.059Z,84.2
2019-01-29T11:17:15.317Z,83.8
2019-01-29T11:18:15.606Z,83.8
2019-01-29T11:19:15.875Z,84.1
2019-01-29T11:20:15.148Z,84.2
2019-01-29T11:21:15.209Z,83.7
2019-01-29T11:22:15.474Z,83.3
2019-01-29T11:23:15.744Z,83.2
2019-01-29T11:24:16.008Z,83.2
2019-01-29T11:25:15.274Z,83.7
2019-01-29T11:26:15.536Z,83.2
2019-01-29T11:27:15.815Z,83.0
2019-01-29T11:28:16.089Z,82.9
2019-01-29T11:29:15.358Z,83.0
2019-01-29T11:30:15.624Z,82.5
2019-01-29T11:31:15.675Z,82.0
2019-01-29T11:32:15.936Z,81.9
2019-01-29T11:33:15.197Z,82.4
2019-01-29T11:34:15.466Z,82.2
2019-01-29T11:35:15.737Z,82.3
2019-01-29T11:36:16.007Z,82.5
2019-01-29T11:37:15.273Z,81.4
2019-01-29T11:38:15.544Z,81.0
2019-01-29T11:39:15.810Z,81.4
2019-01-29T11:40:16.341Z,80.7
2019-01-29T11:41:16.107Z,81.0
2019-01-29T11:42:15.370Z,80.6
2019-01-29T11:43:15.632Z,81.0
2019-01-29T11:44:15.892Z,80.8
2019-01-29T11:45:15.154Z,80.8
2019-01-29T11:46:15.435Z,80.9
2019-01-29T11:47:15.699Z,80.9
2019-01-29T11:48:15.965Z,80.9
2019-01-29T11:49:15.229Z,80.8
2019-01-29T11:50:15.508Z,80.4
2019-01-29T11:51:15.552Z,80.9
2019-01-29T11:52:15.820Z,81.7
2019-01-29T11:53:16.098Z,81.2
2019-01-29T11:54:15.349Z,81.0
2019-01-29T11:55:15.633Z,81.4
2019-01-29T11:56:15.896Z,81.8
2019-01-29T11:57:15.164Z,81.7
2019-01-29T11:58:15.422Z,81.3
2019-01-29T11:59:15.688Z,82.2
2019-01-29T12:00:15.973Z,81.7
2019-01-29T12:01:16.045Z,81.4
2019-01-29T12:02:15.303Z,81.8
2019-01-29T12:03:15.566Z,81.3
2019-01-29T12:04:15.836Z,81.4
2019-01-29T12:05:16.362Z,81.4
2019-01-29T12:06:15.634Z,81.6
2019-01-29T12:07:15.897Z,81.8
2019-01-29T12:08:15.167Z,81.8
2019-01-29T12:09:15.450Z,81.6
2019-01-29T12:10:15.744Z,81.9
2019-01-29T12:11:15.774Z,81.5
2019-01-29T12:12:16.040Z,81.7
2019-01-29T12:13:15.294Z,82.0
2019-01-29T12:14:15.551Z,81.7
2019-01-29T12:15:15.813Z,81.6
2019-01-29T12:16:16.079Z,81.5
2019-01-29T12:17:15.347Z,81.8
2019-01-29T12:18:15.611Z,81.2
2019-01-29T12:19:15.877Z,81.5
2019-01-29T12:20:15.153Z,82.2
2019-01-29T12:21:15.195Z,81.2
2019-01-29T12:22:15.464Z,80.9
2019-01-29T12:23:15.732Z,80.8
2019-01-29T12:24:16.000Z,81.5
2019-01-29T12:25:15.287Z,80.8
2019-01-29T12:26:15.542Z,80.8
2019-01-29T12:27:15.805Z,81.2
2019-01-29T12:28:16.079Z,81.1
2019-01-29T12:29:15.347Z,81.2
2019-01-29T12:30:15.633Z,80.9
2019-01-29T12:31:15.694Z,81.5
2019-01-29T12:32:15.959Z,82.0
2019-01-29T12:33:15.209Z,81.7
2019-01-29T12:34:15.470Z,81.8
2019-01-29T12:35:15.732Z,81.0
2019-01-29T12:36:16.006Z,82.1
2019-01-29T12:37:15.278Z,81.2
2019-01-29T12:38:15.537Z,81.0
2019-01-29T12:39:15.817Z,80.8
2019-01-29T12:40:16.100Z,80.8
2019-01-29T12:41:15.140Z,80.9
2019-01-29T12:42:15.401Z,81.2
2019-01-29T12:43:15.667Z,80.7
2019-01-29T12:44:15.931Z,80.4
2019-01-29T12:45:15.218Z,80.3
2019-01-29T12:46:15.495Z,80.1
2019-01-29T12:47:15.761Z,80.2
2019-01-29T12:48:16.022Z,80.9
2019-01-29T12:49:15.284Z,81.5
2019-01-29T12:50:15.567Z,80.4
2019-01-29T12:51:15.591Z,80.9
2019-01-29T12:52:15.854Z,80.2
2019-01-29T12:53:16.118Z,80.0
2019-01-29T12:54:15.380Z,79.8
2019-01-29T12:55:15.648Z,79.8
2019-01-29T12:56:21.782Z,79.5
2019-01-29T12:57:16.087Z,79.0
2019-01-29T12:58:15.352Z,79.4
2019-01-29T12:59:15.609Z,79.1
2019-01-29T13:00:15.875Z,79.2
2019-01-29T13:01:15.938Z,79.2
2019-01-29T13:02:15.198Z,79.2
2019-01-29T13:03:15.459Z,79.9
2019-01-29T13:04:15.722Z,79.2
2019-01-29T13:05:15.987Z,80.0
2019-01-29T13:06:15.254Z,80.7
2019-01-29T13:07:15.519Z,81.4
2019-01-29T13:08:15.780Z,80.4
2019-01-29T13:09:16.045Z,81.4
2019-01-29T13:10:15.321Z,81.2
2019-01-29T13:11:15.368Z,81.3
2019-01-29T13:12:15.634Z,81.8
2019-01-29T13:13:15.900Z,81.8
2019-01-29T13:14:15.171Z,81.4
2019-01-29T13:15:15.445Z,80.5
2019-01-29T13:16:15.710Z,80.6
2019-01-29T13:17:15.974Z,80.9
2019-01-29T13:18:15.239Z,80.0